createdAt,value
2022-10-04T00:02:23.802Z,20.60
2022-10-04T00:04:57.781Z,20.50
2022-10-04T00:07:29.375Z,20.60
2022-10-04T00:09:59.937Z,20.50
2022-10-04T00:12:31.766Z,20.60
2022-10-04T00:15:04.019Z,20.50
2022-10-04T00:17:35.636Z,20.50
2022-10-04T00:20:05.050Z,20.50
2022-10-04T00:22:33.882Z,20.50
2022-10-04T00:25:22.656Z,20.50
2022-10-04T00:28:31.247Z,20.50
2022-10-04T00:31:15.878Z,20.50
2022-10-04T00:33:45.156Z,20.50
2022-10-04T00:36:46.616Z,20.50
2022-10-04T00:39:50.259Z,20.40
2022-10-04T00:42:47.923Z,20.50
2022-10-04T00:45:34.923Z,20.40
2022-10-04T00:48:21.922Z,20.40
2022-10-04T00:50:54.426Z,20.40
2022-10-04T00:53:28.793Z,20.40
2022-10-04T00:56:01.838Z,20.40
2022-10-04T00:58:35.194Z,20.40
2022-10-04T01:01:05.601Z,20.40
2022-10-04T01:03:39.418Z,20.40
2022-10-04T01:06:11.119Z,20.40
2022-10-04T01:08:41.912Z,20.40
2022-10-04T01:11:14.917Z,20.40
2022-10-04T01:13:48.111Z,20.40
2022-10-04T01:16:19.677Z,20.40
2022-10-04T01:18:49.248Z,20.40
2022-10-04T01:21:29.445Z,20.30
2022-10-04T01:24:22.422Z,20.40
2022-10-04T01:26:50.557Z,20.40
2022-10-04T01:29:20.105Z,20.30
2022-10-04T01:31:49.974Z,20.30
2022-10-04T01:34:20.019Z,20.30
2022-10-04T01:36:48.882Z,20.30
2022-10-04T01:39:19.631Z,20.30
2022-10-04T01:41:54.555Z,20.30
2022-10-04T01:44:25.833Z,20.30
2022-10-04T01:46:56.502Z,20.30
2022-10-04T01:49:29.086Z,20.30
2022-10-04T01:52:00.925Z,20.30
2022-10-04T01:54:35.646Z,20.30
2022-10-04T01:57:11.642Z,20.30
2022-10-04T01:59:45.923Z,20.30
2022-10-04T02:02:22.885Z,20.20
2022-10-04T02:04:55.001Z,20.30
2022-10-04T02:07:24.030Z,20.20
2022-10-04T02:09:59.609Z,20.20
2022-10-04T02:12:28.981Z,20.20
2022-10-04T02:14:58.079Z,20.20
2022-10-04T02:17:31.041Z,20.20
2022-10-04T02:19:59.840Z,20.20
2022-10-04T02:22:27.977Z,20.20
2022-10-04T02:24:58.885Z,20.20
2022-10-04T02:27:31.269Z,20.20
2022-10-04T02:30:03.247Z,20.20
2022-10-04T02:32:50.321Z,20.20
2022-10-04T02:35:20.345Z,20.20
2022-10-04T02:37:50.254Z,20.20
2022-10-04T02:40:23.051Z,20.20
2022-10-04T02:42:59.674Z,20.10
2022-10-04T02:45:38.483Z,20.20
2022-10-04T02:48:18.627Z,20.20
2022-10-04T02:50:51.335Z,20.10
2022-10-04T02:53:26.535Z,20.10
2022-10-04T02:55:56.488Z,20.10
2022-10-04T02:58:26.908Z,20.10
2022-10-04T03:00:58.604Z,20.10
2022-10-04T03:03:28.624Z,20.10
2022-10-04T03:06:04.448Z,20.10
2022-10-04T03:08:36.609Z,20.10
2022-10-04T03:11:06.869Z,20.10
2022-10-04T03:13:37.177Z,20.10
2022-10-04T03:16:05.875Z,20.10
2022-10-04T03:18:36.113Z,20.10
2022-10-04T03:21:08.946Z,20.10
2022-10-04T03:23:37.438Z,20.00
2022-10-04T03:26:20.532Z,20.00
2022-10-04T03:28:48.828Z,20.00
2022-10-04T03:31:19.853Z,20.00
2022-10-04T03:33:48.547Z,20.00
2022-10-04T03:36:18.950Z,20.00
2022-10-04T03:38:48.965Z,20.00
2022-10-04T03:41:18.340Z,20.00
2022-10-04T03:43:49.401Z,20.00
2022-10-04T03:46:19.851Z,19.90
2022-10-04T03:48:51.954Z,20.00
2022-10-04T03:51:22.633Z,19.90
2022-10-04T03:53:53.382Z,19.90
2022-10-04T03:56:27.473Z,19.90
2022-10-04T03:58:56.434Z,19.90
2022-10-04T04:01:37.898Z,19.90
2022-10-04T04:04:17.360Z,19.90
2022-10-04T04:06:55.990Z,19.90
2022-10-04T04:09:27.584Z,19.90
2022-10-04T04:11:58.508Z,20.00
2022-10-04T04:14:28.029Z,19.90
2022-10-04T04:17:17.144Z,19.90
2022-10-04T04:19:46.215Z,19.90
2022-10-04T04:22:17.578Z,19.90
2022-10-04T04:24:46.742Z,19.90
2022-10-04T04:27:18.861Z,19.90
2022-10-04T04:29:51.727Z,19.90
2022-10-04T04:32:24.168Z,19.90
2022-10-04T04:34:53.973Z,19.90
2022-10-04T04:37:21.927Z,19.90
2022-10-04T04:39:54.861Z,19.90
2022-10-04T04:42:29.093Z,19.90
2022-10-04T04:45:00.914Z,19.90
2022-10-04T04:47:33.153Z,19.90
2022-10-04T04:50:07.241Z,19.90
2022-10-04T04:52:37.088Z,19.90
2022-10-04T04:55:06.688Z,19.90
2022-10-04T04:57:35.971Z,20.00
2022-10-04T05:00:04.629Z,20.00
2022-10-04T05:02:35.587Z,20.00
2022-10-04T05:05:21.792Z,20.10
2022-10-04T05:07:50.751Z,20.10
2022-10-04T05:10:29.809Z,20.20
2022-10-04T05:13:00.839Z,20.20
2022-10-04T05:15:33.451Z,20.20
2022-10-04T05:18:02.255Z,20.20
2022-10-04T05:20:31.472Z,20.20
2022-10-04T05:23:00.008Z,20.20
2022-10-04T05:25:33.245Z,20.20
2022-10-04T05:28:03.306Z,20.30
2022-10-04T05:30:44.565Z,20.20
2022-10-04T05:33:15.525Z,20.20
2022-10-04T05:35:59.166Z,20.30
2022-10-04T05:38:37.804Z,20.20
2022-10-04T05:41:10.097Z,20.30
2022-10-04T05:43:48.102Z,20.20
2022-10-04T05:46:22.750Z,20.20
2022-10-04T05:48:55.386Z,20.30
2022-10-04T05:51:27.602Z,20.30
2022-10-04T05:54:01.328Z,20.30
2022-10-04T05:56:54.880Z,20.20
2022-10-04T05:59:45.734Z,20.30
2022-10-04T06:02:25.395Z,20.30
2022-10-04T06:05:02.730Z,20.30
2022-10-04T06:07:35.561Z,20.30
2022-10-04T06:10:30.678Z,20.20
2022-10-04T06:13:03.228Z,20.20
2022-10-04T06:15:54.185Z,20.20
2022-10-04T06:18:45.288Z,20.20
2022-10-04T06:21:22.438Z,20.20
2022-10-04T06:23:57.915Z,20.20
2022-10-04T06:26:31.079Z,20.20
2022-10-04T06:29:02.085Z,20.20
2022-10-04T06:31:57.035Z,20.20
2022-10-04T06:34:51.838Z,20.20
2022-10-04T06:37:44.620Z,20.20
2022-10-04T06:40:43.150Z,20.20
2022-10-04T06:43:27.904Z,20.20
2022-10-04T06:46:18.299Z,20.20
2022-10-04T06:49:01.953Z,20.20
2022-10-04T06:51:44.114Z,20.10
2022-10-04T06:54:27.852Z,19.60
2022-10-04T06:57:21.330Z,19.40
2022-10-04T07:00:08.572Z,19.50
2022-10-04T07:02:41.712Z,19.60
2022-10-04T07:05:21.589Z,19.80
2022-10-04T07:08:06.476Z,19.80
2022-10-04T07:10:40.133Z,19.90
2022-10-04T07:13:33.091Z,19.90
2022-10-04T07:16:06.914Z,20.00
2022-10-04T07:18:38.799Z,20.00
2022-10-04T07:21:12.423Z,20.10
2022-10-04T07:23:47.662Z,20.10
2022-10-04T07:26:24.509Z,20.10
2022-10-04T07:29:12.981Z,20.10
2022-10-04T07:31:42.882Z,20.20
2022-10-04T07:34:15.659Z,20.20
2022-10-04T07:36:47.898Z,20.20
2022-10-04T07:39:18.273Z,20.20
2022-10-04T07:41:51.808Z,20.20
2022-10-04T07:44:30.616Z,20.20
2022-10-04T07:47:03.724Z,20.30
2022-10-04T07:49:39.344Z,20.30
2022-10-04T07:52:27.466Z,20.30
2022-10-04T07:55:02.100Z,20.30
2022-10-04T07:57:37.877Z,20.20
2022-10-04T08:00:13.979Z,20.20
2022-10-04T08:02:57.415Z,20.20
2022-10-04T08:05:30.266Z,20.30
2022-10-04T08:08:21.454Z,20.30
2022-10-04T08:11:00.684Z,20.40
2022-10-04T08:13:39.831Z,20.40
2022-10-04T08:16:23.668Z,20.40
2022-10-04T08:19:04.401Z,20.50
2022-10-04T08:21:43.092Z,20.50
2022-10-04T08:24:21.595Z,20.40
2022-10-04T08:27:06.869Z,20.60
2022-10-04T08:29:58.066Z,20.70
2022-10-04T08:32:42.750Z,20.90
2022-10-04T08:35:29.207Z,21.00
2022-10-04T08:38:16.754Z,21.20
2022-10-04T08:41:26.528Z,21.30
2022-10-04T08:44:38.099Z,21.50
2022-10-04T08:47:29.322Z,21.50
2022-10-04T08:50:28.714Z,21.60
2022-10-04T08:53:17.383Z,21.70
2022-10-04T08:56:06.028Z,21.80
2022-10-04T08:58:52.591Z,21.90
2022-10-04T09:02:00.091Z,21.90
2022-10-04T09:04:46.831Z,22.00
2022-10-04T09:07:47.905Z,22.10
2022-10-04T09:10:39.209Z,22.10
2022-10-04T09:13:38.651Z,22.20
2022-10-04T09:16:17.195Z,22.20
2022-10-04T09:19:21.625Z,22.20
2022-10-04T09:22:20.105Z,22.30
2022-10-04T09:25:22.561Z,22.40
2022-10-04T09:28:30.546Z,22.40
2022-10-04T09:31:26.160Z,22.50
2022-10-04T09:34:37.234Z,22.60
2022-10-04T09:37:29.101Z,22.80
2022-10-04T09:40:29.642Z,23.00
2022-10-04T09:43:19.416Z,23.20
2022-10-04T09:46:11.284Z,23.50
2022-10-04T09:48:44.876Z,23.70
2022-10-04T09:51:52.193Z,23.70
2022-10-04T09:54:51.613Z,23.20
2022-10-04T09:57:34.154Z,22.40
2022-10-04T10:00:24.497Z,22.00
2022-10-04T10:03:31.813Z,21.70
2022-10-04T10:06:27.206Z,21.60
2022-10-04T10:09:10.698Z,21.40
2022-10-04T10:12:05.144Z,21.40
2022-10-04T10:15:03.918Z,21.30
2022-10-04T10:17:41.518Z,21.30
2022-10-04T10:20:34.637Z,21.20
2022-10-04T10:23:22.616Z,21.20
2022-10-04T10:26:09.948Z,21.20
2022-10-04T10:29:13.170Z,21.20
2022-10-04T10:31:59.892Z,21.20
2022-10-04T10:34:53.186Z,21.20
2022-10-04T10:37:35.734Z,21.10
2022-10-04T10:40:42.624Z,21.10
2022-10-04T10:43:28.430Z,21.10
2022-10-04T10:46:06.144Z,21.10
2022-10-04T10:48:58.372Z,21.10
2022-10-04T10:51:51.218Z,21.00
2022-10-04T10:55:10.677Z,20.90
2022-10-04T10:58:15.404Z,20.90
2022-10-04T11:00:59.578Z,20.80
2022-10-04T11:04:19.108Z,20.90
2022-10-04T11:07:18.434Z,21.00
2022-10-04T11:10:23.666Z,21.00
2022-10-04T11:13:17.862Z,21.00
2022-10-04T11:16:13.053Z,21.00
2022-10-04T11:19:19.232Z,21.00
2022-10-04T11:22:07.362Z,21.20
2022-10-04T11:25:06.184Z,21.00
2022-10-04T11:27:48.958Z,21.00
2022-10-04T11:30:23.339Z,21.00
2022-10-04T11:33:46.039Z,21.00
2022-10-04T11:36:34.002Z,21.00
2022-10-04T11:39:30.343Z,21.00
2022-10-04T11:42:07.718Z,21.00
2022-10-04T11:44:59.763Z,21.00
2022-10-04T11:47:43.061Z,20.90
2022-10-04T11:50:25.354Z,21.00
2022-10-04T11:53:29.836Z,20.90
2022-10-04T11:56:16.890Z,21.00
2022-10-04T11:58:56.307Z,21.00
2022-10-04T12:02:00.922Z,20.90
2022-10-04T12:05:01.541Z,21.00
2022-10-04T12:07:50.412Z,21.00
2022-10-04T12:10:28.603Z,21.00
2022-10-04T12:13:23.468Z,21.00
2022-10-04T12:16:13.078Z,21.00
2022-10-04T12:19:22.648Z,21.00
2022-10-04T12:22:06.604Z,21.00
2022-10-04T12:24:51.717Z,21.00
2022-10-04T12:27:48.889Z,21.00
2022-10-04T12:30:26.543Z,21.00
2022-10-04T12:33:07.973Z,21.00
2022-10-04T12:35:48.995Z,21.00
2022-10-04T12:38:42.848Z,21.00
2022-10-04T12:41:26.777Z,21.00
2022-10-04T12:44:03.210Z,21.00
2022-10-04T12:46:40.858Z,21.00
2022-10-04T12:49:26.089Z,21.00
2022-10-04T12:52:00.076Z,21.00
2022-10-04T12:54:37.540Z,21.00
2022-10-04T12:57:35.452Z,21.00
2022-10-04T13:00:14.381Z,21.10
2022-10-04T13:03:14.120Z,21.10
2022-10-04T13:05:51.370Z,21.10
2022-10-04T13:08:29.072Z,21.10
2022-10-04T13:11:20.609Z,21.10
2022-10-04T13:14:20.964Z,21.10
2022-10-04T13:19:56.837Z,21.10
2022-10-04T13:22:56.069Z,21.10
2022-10-04T13:26:04.514Z,21.10
2022-10-04T13:28:41.071Z,21.10
2022-10-04T13:31:14.087Z,21.10
2022-10-04T13:33:52.226Z,21.10
2022-10-04T13:36:25.261Z,21.10
2022-10-04T13:39:19.695Z,21.10
2022-10-04T13:42:10.136Z,21.10
2022-10-04T13:45:04.450Z,21.10
2022-10-04T13:47:52.282Z,21.10
2022-10-04T13:50:38.713Z,21.20
2022-10-04T13:53:40.659Z,21.10
2022-10-04T13:56:37.625Z,21.20
2022-10-04T13:59:17.146Z,21.10
2022-10-04T14:02:24.700Z,21.20
2022-10-04T14:05:38.773Z,21.20
2022-10-04T14:08:52.455Z,21.10
2022-10-04T14:11:49.234Z,21.10
2022-10-04T14:14:47.717Z,21.20
2022-10-04T14:17:34.929Z,21.10
2022-10-04T14:20:27.938Z,21.20
2022-10-04T14:23:10.881Z,21.10
2022-10-04T14:26:16.196Z,21.20
2022-10-04T14:29:16.314Z,21.20
2022-10-04T14:32:07.247Z,21.10
2022-10-04T14:35:03.274Z,21.20
2022-10-04T14:37:54.264Z,21.20
2022-10-04T14:40:44.473Z,21.20
2022-10-04T14:43:58.868Z,21.20
2022-10-04T14:46:43.480Z,21.20
2022-10-04T14:49:21.485Z,21.20
2022-10-04T14:52:18.236Z,21.20
2022-10-04T14:54:53.508Z,21.20
2022-10-04T14:57:28.674Z,21.20
2022-10-04T15:00:17.927Z,21.30
2022-10-04T15:03:20.605Z,21.20
2022-10-04T15:06:10.381Z,21.20
2022-10-04T15:09:10.752Z,21.20
2022-10-04T15:12:02.322Z,21.20
2022-10-04T15:14:39.652Z,21.20
2022-10-04T15:17:11.735Z,21.20
2022-10-04T15:20:02.604Z,21.30
2022-10-04T15:22:39.215Z,21.30
2022-10-04T15:25:43.775Z,21.30
2022-10-04T15:28:48.176Z,21.30
2022-10-04T15:31:23.805Z,21.30
2022-10-04T15:34:02.942Z,21.30
2022-10-04T15:37:08.040Z,21.30
2022-10-04T15:40:04.017Z,21.30
2022-10-04T15:42:35.322Z,21.30
2022-10-04T15:45:29.858Z,21.30
2022-10-04T15:48:11.525Z,21.30
2022-10-04T15:50:55.477Z,21.30
2022-10-04T15:53:50.259Z,21.40
2022-10-04T15:56:33.467Z,21.40
2022-10-04T15:59:39.035Z,21.30
2022-10-04T16:02:29.286Z,21.40
2022-10-04T16:05:16.900Z,21.40
2022-10-04T16:08:15.219Z,21.40
2022-10-04T16:11:04.172Z,21.40
2022-10-04T16:14:00.843Z,21.40
2022-10-04T16:17:09.704Z,21.40
2022-10-04T16:20:17.583Z,21.40
2022-10-04T16:23:18.681Z,21.40
2022-10-04T16:25:47.951Z,21.40
2022-10-04T16:28:44.870Z,21.40
2022-10-04T16:31:27.692Z,21.40
2022-10-04T16:34:01.968Z,21.40
2022-10-04T16:36:45.316Z,21.40
2022-10-04T16:39:48.934Z,21.40
2022-10-04T16:42:19.204Z,21.40
2022-10-04T16:44:53.449Z,21.40
2022-10-04T16:47:27.864Z,21.30
2022-10-04T16:49:57.707Z,21.30
2022-10-04T16:52:48.046Z,21.30
2022-10-04T16:55:51.398Z,21.40
2022-10-04T16:58:49.782Z,21.30
2022-10-04T17:02:14.107Z,21.30
2022-10-04T17:05:02.463Z,21.30
2022-10-04T17:07:43.589Z,21.20
2022-10-04T17:10:28.628Z,21.20
2022-10-04T17:13:07.287Z,21.20
2022-10-04T17:15:48.402Z,21.10
2022-10-04T17:18:31.255Z,21.10
2022-10-04T17:21:02.561Z,21.10
2022-10-04T17:23:52.760Z,21.10
2022-10-04T17:26:37.150Z,21.10
2022-10-04T17:29:24.241Z,21.10
2022-10-04T17:31:58.714Z,21.10
2022-10-04T17:34:40.947Z,21.10
2022-10-04T17:37:21.848Z,21.10
2022-10-04T17:39:54.415Z,21.10
2022-10-04T17:42:30.265Z,21.10
2022-10-04T17:45:15.315Z,21.10
2022-10-04T17:48:06.966Z,21.10
2022-10-04T17:50:59.907Z,21.10
2022-10-04T17:53:48.235Z,21.10
2022-10-04T17:56:29.637Z,21.10
2022-10-04T17:59:00.086Z,21.10
2022-10-04T18:01:31.788Z,21.10
2022-10-04T18:04:08.899Z,21.00
2022-10-04T18:06:43.533Z,21.10
2022-10-04T18:09:16.064Z,21.00
2022-10-04T18:11:51.078Z,21.10
2022-10-04T18:14:39.461Z,21.10
2022-10-04T18:17:11.268Z,21.10
2022-10-04T18:20:00.801Z,21.10
2022-10-04T18:22:46.414Z,21.10
2022-10-04T18:25:16.492Z,21.10
2022-10-04T18:27:53.676Z,21.20
2022-10-04T18:30:22.560Z,21.20
2022-10-04T18:32:53.076Z,21.20
2022-10-04T18:35:26.961Z,21.20
2022-10-04T18:37:59.299Z,21.20
2022-10-04T18:40:33.110Z,21.20
2022-10-04T18:43:02.053Z,21.20
2022-10-04T18:45:31.458Z,21.20
2022-10-04T18:48:01.812Z,21.20
2022-10-04T18:50:35.861Z,21.10
2022-10-04T18:53:21.818Z,21.10
2022-10-04T18:55:58.300Z,21.10
2022-10-04T18:59:07.853Z,21.10
2022-10-04T19:02:03.269Z,21.10
2022-10-04T19:04:48.546Z,21.10
2022-10-04T19:07:19.320Z,21.10
2022-10-04T19:10:16.845Z,21.00
2022-10-04T19:13:03.981Z,21.00
2022-10-04T19:15:52.493Z,21.10
2022-10-04T19:18:36.771Z,21.10
2022-10-04T19:21:15.960Z,21.00
2022-10-04T19:23:57.712Z,21.00
2022-10-04T19:26:33.253Z,21.10
2022-10-04T19:29:11.641Z,21.10
2022-10-04T19:31:49.670Z,21.00
2022-10-04T19:34:23.004Z,21.10
2022-10-04T19:36:58.745Z,21.10
2022-10-04T19:39:38.388Z,21.10
2022-10-04T19:42:13.539Z,21.10
2022-10-04T19:44:53.690Z,21.10
2022-10-04T19:47:37.140Z,21.10
2022-10-04T19:50:10.965Z,21.10
2022-10-04T19:52:44.609Z,21.10
2022-10-04T19:55:26.270Z,21.10
2022-10-04T19:58:05.529Z,21.10
2022-10-04T20:00:35.711Z,21.10
2022-10-04T20:03:10.427Z,21.10
2022-10-04T20:05:44.101Z,21.10
2022-10-04T20:08:13.546Z,21.10
2022-10-04T20:10:42.203Z,21.10
2022-10-04T20:13:24.882Z,21.10
2022-10-04T20:15:55.101Z,21.10
2022-10-04T20:19:03.001Z,21.10
2022-10-04T20:21:32.042Z,21.10
2022-10-04T20:24:01.496Z,21.10
2022-10-04T20:27:04.370Z,21.10
2022-10-04T20:30:13.210Z,21.10
2022-10-04T20:33:01.033Z,21.10
2022-10-04T20:36:09.514Z,21.10
2022-10-04T20:38:55.090Z,21.10
2022-10-04T20:42:04.863Z,21.10
2022-10-04T20:44:54.490Z,21.10
2022-10-04T20:47:34.275Z,21.10
2022-10-04T20:50:03.193Z,21.00
2022-10-04T20:52:33.066Z,21.00
2022-10-04T20:55:02.868Z,21.10
2022-10-04T20:57:31.538Z,21.10
2022-10-04T20:59:59.753Z,21.10
2022-10-04T21:02:29.179Z,21.10
2022-10-04T21:05:13.404Z,21.10
2022-10-04T21:07:41.458Z,21.10
2022-10-04T21:10:18.029Z,21.10
2022-10-04T21:12:46.132Z,21.10
2022-10-04T21:15:21.981Z,21.00
2022-10-04T21:18:07.143Z,21.10
2022-10-04T21:20:46.276Z,21.10
2022-10-04T21:23:23.095Z,21.10
2022-10-04T21:25:51.550Z,21.10
2022-10-04T21:28:36.019Z,21.10
2022-10-04T21:31:05.203Z,21.10
2022-10-04T21:33:35.549Z,21.10
2022-10-04T21:36:04.189Z,21.00
2022-10-04T21:38:32.347Z,21.00
2022-10-04T21:41:00.251Z,21.00
2022-10-04T21:43:28.144Z,21.00
2022-10-04T21:45:56.116Z,21.00
2022-10-04T21:48:24.583Z,21.00
2022-10-04T21:50:55.026Z,21.00
2022-10-04T21:53:23.364Z,21.10
2022-10-04T21:55:51.534Z,21.00
2022-10-04T21:58:19.461Z,21.00
2022-10-04T22:00:47.415Z,21.00
2022-10-04T22:03:15.420Z,21.00
2022-10-04T22:05:43.332Z,21.00
2022-10-04T22:08:12.612Z,21.00
2022-10-04T22:10:40.959Z,21.00
2022-10-04T22:13:08.904Z,21.10
2022-10-04T22:15:37.137Z,21.00
2022-10-04T22:18:05.230Z,21.00
2022-10-04T22:20:33.420Z,21.00
2022-10-04T22:23:02.933Z,21.00
2022-10-04T22:25:32.270Z,20.90
2022-10-04T22:28:01.227Z,20.90
2022-10-04T22:30:31.360Z,20.90
2022-10-04T22:33:01.234Z,20.90
2022-10-04T22:35:31.948Z,20.80
2022-10-04T22:38:00.966Z,20.80
2022-10-04T22:40:30.180Z,20.80
2022-10-04T22:43:00.848Z,20.80
2022-10-04T22:45:33.358Z,20.70
2022-10-04T22:48:10.699Z,20.40
2022-10-04T22:50:39.389Z,20.70
2022-10-04T22:53:13.167Z,20.70
2022-10-04T22:55:41.493Z,20.70
2022-10-04T22:58:14.033Z,20.70
2022-10-04T23:00:42.854Z,20.70
2022-10-04T23:03:22.559Z,20.70
2022-10-04T23:05:50.553Z,20.70
2022-10-04T23:08:18.821Z,20.70
2022-10-04T23:10:47.107Z,20.70
2022-10-04T23:13:17.289Z,20.70
2022-10-04T23:15:47.215Z,20.70
2022-10-04T23:18:16.845Z,20.60
2022-10-04T23:20:45.157Z,20.70
2022-10-04T23:23:21.093Z,20.70
2022-10-04T23:25:49.177Z,20.60
2022-10-04T23:28:20.176Z,20.70
2022-10-04T23:30:57.988Z,20.70
2022-10-04T23:33:25.917Z,20.60
2022-10-04T23:35:55.733Z,20.60
2022-10-04T23:38:25.564Z,20.60
2022-10-04T23:40:53.423Z,20.60
2022-10-04T23:43:25.749Z,20.60
2022-10-04T23:45:54.630Z,20.60
2022-10-04T23:48:26.268Z,20.60
2022-10-04T23:50:56.123Z,20.60
2022-10-04T23:53:27.040Z,20.60
2022-10-04T23:55:56.424Z,20.60
2022-10-04T23:58:30.794Z,20.60
